createdAt,value
2023-08-06T00:00:02.104Z,97543.69
2023-08-06T00:01:04.028Z,97534.06
2023-08-06T00:02:05.591Z,97544.63
2023-08-06T00:03:07.515Z,97530.81
2023-08-06T00:04:09.115Z,97549.19
2023-08-06T00:05:10.650Z,97544.31
2023-08-06T00:06:12.166Z,97545.34
2023-08-06T00:07:13.826Z,97546.00
2023-08-06T00:08:15.677Z,97546.59
2023-08-06T00:09:17.359Z,97556.34
2023-08-06T00:10:18.957Z,97542.88
2023-08-06T00:11:20.684Z,97553.63
2023-08-06T00:12:22.200Z,97549.56
2023-08-06T00:13:24.070Z,97528.69
2023-08-06T00:14:25.611Z,97551.47
2023-08-06T00:15:27.119Z,97543.31
2023-08-06T00:16:28.701Z,97543.47
2023-08-06T00:17:30.297Z,97547.97
2023-08-06T00:18:32.341Z,97545.13
2023-08-06T00:19:33.875Z,97540.47
2023-08-06T00:20:35.408Z,97546.75
2023-08-06T00:21:38.608Z,97544.50
2023-08-06T00:22:41.526Z,97545.06
2023-08-06T00:23:43.408Z,97524.97
2023-08-06T00:24:45.001Z,97532.97
2023-08-06T00:25:46.581Z,97536.81
2023-08-06T00:26:48.077Z,97536.22
2023-08-06T00:27:49.635Z,97536.81
2023-08-06T00:28:51.491Z,97537.34
2023-08-06T00:29:53.599Z,97521.94
2023-08-06T00:30:55.738Z,97531.69
2023-08-06T00:31:57.326Z,97519.41
2023-08-06T00:32:59.034Z,97523.19
2023-08-06T00:34:00.927Z,97513.72
2023-08-06T00:35:02.756Z,97522.28
2023-08-06T00:36:04.289Z,97528.13
2023-08-06T00:37:05.908Z,97520.81
2023-08-06T00:38:07.451Z,97520.94
2023-08-06T00:39:09.384Z,97497.00
2023-08-06T00:40:10.911Z,97517.09
2023-08-06T00:41:12.708Z,97512.91
2023-08-06T00:42:14.292Z,97513.06
2023-08-06T00:43:15.911Z,97503.25
2023-08-06T00:44:17.779Z,97503.38
2023-08-06T00:45:19.392Z,97503.56
2023-08-06T00:46:21.537Z,97498.09
2023-08-06T00:47:23.172Z,97498.31
2023-08-06T00:48:24.734Z,97494.56
2023-08-06T00:49:26.609Z,97496.00
2023-08-06T00:50:28.142Z,97491.72
2023-08-06T00:51:29.687Z,97482.66
2023-08-06T00:52:31.280Z,97483.59
2023-08-06T00:53:32.844Z,97477.81
2023-08-06T00:54:34.848Z,97480.44
2023-08-06T00:55:36.571Z,97486.94
2023-08-06T00:56:38.144Z,97483.63
2023-08-06T00:57:39.710Z,97485.53
2023-08-06T00:58:41.250Z,97473.78
2023-08-06T00:59:43.155Z,97480.88
2023-08-06T01:00:44.880Z,97478.34
2023-08-06T01:01:46.603Z,97482.50
2023-08-06T01:02:49.776Z,97473.16
2023-08-06T01:03:51.564Z,97479.03
2023-08-06T01:04:53.485Z,97481.78
2023-08-06T01:05:55.023Z,97486.53
2023-08-06T01:07:26.955Z,97475.50
2023-08-06T01:08:51.058Z,97494.25
2023-08-06T01:09:59.365Z,97493.66
2023-08-06T01:11:22.482Z,97493.25
2023-08-06T01:12:31.134Z,97494.78
2023-08-06T01:13:50.226Z,97496.50
2023-08-06T01:15:05.028Z,97498.63
2023-08-06T01:16:06.946Z,97497.63
2023-08-06T01:17:09.260Z,97497.91
2023-08-06T01:18:11.652Z,97500.34
2023-08-06T01:19:19.239Z,97501.53
2023-08-06T01:20:21.114Z,97503.25
2023-08-06T01:21:22.655Z,97500.09
2023-08-06T01:22:24.184Z,97499.81
2023-08-06T01:23:25.800Z,97490.88
2023-08-06T01:24:27.387Z,97498.19
2023-08-06T01:25:35.345Z,97501.72
2023-08-06T01:26:40.166Z,97498.47
2023-08-06T01:27:47.668Z,97477.59
2023-08-06T01:29:11.026Z,97495.84
2023-08-06T01:30:14.931Z,97492.00
2023-08-06T01:31:20.301Z,97475.28
2023-08-06T01:32:21.890Z,97485.31
2023-08-06T01:33:23.544Z,97490.72
2023-08-06T01:34:25.993Z,97489.28
2023-08-06T01:35:28.255Z,97482.50
2023-08-06T01:36:30.117Z,97488.47
2023-08-06T01:37:31.726Z,97474.47
2023-08-06T01:38:33.325Z,97473.97
2023-08-06T01:39:34.960Z,97476.19
2023-08-06T01:40:36.847Z,97475.38
2023-08-06T01:41:38.435Z,97480.41
2023-08-06T01:42:40.216Z,97466.03
2023-08-06T01:43:42.401Z,97479.00
2023-08-06T01:44:43.936Z,97480.03
2023-08-06T01:45:45.796Z,97448.53
2023-08-06T01:46:47.393Z,97472.47
2023-08-06T01:47:49.003Z,97468.94
2023-08-06T01:48:50.556Z,97469.72
2023-08-06T01:49:52.077Z,97451.59
2023-08-06T01:50:53.934Z,97461.63
2023-08-06T01:51:55.447Z,97461.13
2023-08-06T01:52:56.961Z,97453.09
2023-08-06T01:53:58.471Z,97459.97
2023-08-06T01:55:00.214Z,97449.25
2023-08-06T01:56:02.245Z,97448.84
2023-08-06T01:57:03.909Z,97449.25
2023-08-06T01:58:05.509Z,97463.94
2023-08-06T01:59:07.047Z,97462.53
2023-08-06T02:00:09.074Z,97458.69
2023-08-06T02:01:11.019Z,97456.16
2023-08-06T02:02:12.593Z,97452.19
2023-08-06T02:03:14.244Z,97458.06
2023-08-06T02:04:15.779Z,97446.22
2023-08-06T02:05:17.304Z,97461.84
2023-08-06T02:06:19.189Z,97464.06
2023-08-06T02:07:20.757Z,97466.50
2023-08-06T02:08:22.314Z,97467.31
2023-08-06T02:09:23.849Z,97466.28
2023-08-06T02:10:25.430Z,97438.38
2023-08-06T02:11:27.284Z,97458.25
2023-08-06T02:12:28.813Z,97461.44
2023-08-06T02:13:30.352Z,97454.94
2023-08-06T02:14:31.971Z,97451.38
2023-08-06T02:15:33.532Z,97448.53
2023-08-06T02:16:35.408Z,97457.25
2023-08-06T02:17:37.023Z,97459.16
2023-08-06T02:18:38.584Z,97452.91
2023-08-06T02:19:40.132Z,97453.72
2023-08-06T02:20:42.044Z,97450.97
2023-08-06T02:21:43.931Z,97447.81
2023-08-06T02:22:45.494Z,97444.56
2023-08-06T02:23:47.080Z,97450.81
2023-08-06T02:24:50.485Z,97437.28
2023-08-06T02:26:02.272Z,97437.84
2023-08-06T02:27:03.930Z,97423.56
2023-08-06T02:28:05.498Z,97441.69
2023-08-06T02:29:07.019Z,97438.44
2023-08-06T02:30:08.760Z,97446.47
2023-08-06T02:31:10.698Z,97449.19
2023-08-06T02:32:12.278Z,97440.53
2023-08-06T02:33:13.819Z,97438.50
2023-08-06T02:34:15.372Z,97436.88
2023-08-06T02:35:16.914Z,97441.75
2023-08-06T02:36:18.784Z,97441.97
2023-08-06T02:37:20.314Z,97434.88
2023-08-06T02:38:22.182Z,97443.88
2023-08-06T02:39:23.784Z,97437.91
2023-08-06T02:40:25.316Z,97442.03
2023-08-06T02:41:27.333Z,97432.50
2023-08-06T02:42:28.928Z,97438.72
2023-08-06T02:43:30.571Z,97424.59
2023-08-06T02:44:32.264Z,97442.13
2023-08-06T02:45:33.841Z,97435.88
2023-08-06T02:46:35.761Z,97432.63
2023-08-06T02:47:37.323Z,97425.53
2023-08-06T02:48:38.950Z,97425.31
2023-08-06T02:49:40.462Z,97429.38
2023-08-06T02:50:42.297Z,97404.88
2023-08-06T02:51:46.478Z,97411.66
2023-08-06T02:52:48.013Z,97397.38
2023-08-06T02:53:50.561Z,97392.59
2023-08-06T02:54:52.456Z,97396.00
2023-08-06T02:55:54.177Z,97393.41
2023-08-06T02:56:55.734Z,97388.06
2023-08-06T02:57:57.325Z,97387.75
2023-08-06T02:58:58.857Z,97383.41
2023-08-06T03:00:00.394Z,97390.34
2023-08-06T03:01:04.450Z,97391.38
2023-08-06T03:02:06.401Z,97385.63
2023-08-06T03:03:07.972Z,97386.50
2023-08-06T03:04:09.543Z,97383.28
2023-08-06T03:05:11.083Z,97369.69
2023-08-06T03:06:12.965Z,97384.31
2023-08-06T03:07:14.498Z,97378.53
2023-08-06T03:08:16.092Z,97384.34
2023-08-06T03:09:18.258Z,97388.19
2023-08-06T03:10:21.011Z,97383.75
2023-08-06T03:11:22.925Z,97384.25
2023-08-06T03:12:24.432Z,97378.59
2023-08-06T03:13:26.042Z,97383.44
2023-08-06T03:14:27.582Z,97386.19
2023-08-06T03:15:29.115Z,97387.06
2023-08-06T03:16:31.645Z,97379.28
2023-08-06T03:17:33.212Z,97382.31
2023-08-06T03:18:34.762Z,97376.41
2023-08-06T03:19:36.305Z,97377.94
2023-08-06T03:20:37.806Z,97388.59
2023-08-06T03:21:39.659Z,97378.91
2023-08-06T03:22:41.204Z,97380.25
2023-08-06T03:23:43.344Z,97371.00
2023-08-06T03:24:44.911Z,97377.28
2023-08-06T03:25:47.737Z,97387.63
2023-08-06T03:26:49.277Z,97373.75
2023-08-06T03:27:50.790Z,97386.38
2023-08-06T03:28:52.339Z,97378.28
2023-08-06T03:29:53.939Z,97381.94
2023-08-06T03:31:05.253Z,97375.88
2023-08-06T03:32:07.239Z,97357.94
2023-08-06T03:33:08.785Z,97380.69
2023-08-06T03:34:10.303Z,97388.28
2023-08-06T03:35:11.812Z,97371.69
2023-08-06T03:36:13.670Z,97376.56
2023-08-06T03:37:15.194Z,97376.97
2023-08-06T03:38:16.716Z,97379.56
2023-08-06T03:39:18.262Z,97380.16
2023-08-06T03:40:20.392Z,97389.97
2023-08-06T03:41:22.057Z,97378.69
2023-08-06T03:42:23.571Z,97383.03
2023-08-06T03:43:25.088Z,97386.88
2023-08-06T03:44:28.090Z,97372.88
2023-08-06T03:45:29.967Z,97367.13
2023-08-06T03:46:35.000Z,97371.25
2023-08-06T03:47:36.712Z,97362.84
2023-08-06T03:48:38.321Z,97359.59
2023-08-06T03:49:39.895Z,97346.06
2023-08-06T03:50:42.499Z,97360.84
2023-08-06T03:51:44.079Z,97353.38
2023-08-06T03:52:45.618Z,97362.09
2023-08-06T03:53:47.200Z,97362.19
2023-08-06T03:54:48.722Z,97365.41
2023-08-06T03:55:50.578Z,97361.16
2023-08-06T03:56:52.151Z,97356.81
2023-08-06T03:57:53.702Z,97350.72
2023-08-06T03:58:55.268Z,97363.16
2023-08-06T03:59:56.823Z,97360.22
2023-08-06T04:01:00.358Z,97351.81
2023-08-06T04:02:01.902Z,97359.81
2023-08-06T04:03:03.603Z,97344.00
2023-08-06T04:04:05.174Z,97372.66
2023-08-06T04:05:06.821Z,97371.50
2023-08-06T04:06:08.760Z,97359.25
2023-08-06T04:07:10.278Z,97365.13
2023-08-06T04:08:11.827Z,97364.91
2023-08-06T04:09:14.402Z,97365.34
2023-08-06T04:10:15.956Z,97366.16
2023-08-06T04:11:17.849Z,97367.78
2023-08-06T04:12:20.733Z,97358.84
2023-08-06T04:13:24.059Z,97355.53
2023-08-06T04:14:27.400Z,97367.84
2023-08-06T04:15:28.922Z,97368.88
2023-08-06T04:16:30.925Z,97357.72
2023-08-06T04:17:32.630Z,97365.63
2023-08-06T04:18:34.239Z,97368.94
2023-08-06T04:19:35.769Z,97375.22
2023-08-06T04:20:46.686Z,97358.19
2023-08-06T04:21:48.590Z,97359.75
2023-08-06T04:22:50.110Z,97372.19
2023-08-06T04:23:51.634Z,97371.38
2023-08-06T04:24:53.171Z,97367.03
2023-08-06T04:25:58.660Z,97356.16
2023-08-06T04:27:00.534Z,97370.75
2023-08-06T04:28:02.076Z,97357.19
2023-08-06T04:29:03.765Z,97353.94
2023-08-06T04:30:08.255Z,97372.47
2023-08-06T04:31:11.747Z,97367.59
2023-08-06T04:32:13.676Z,97357.66
2023-08-06T04:33:15.360Z,97340.94
2023-08-06T04:34:16.871Z,97358.47
2023-08-06T04:35:18.400Z,97357.94
2023-08-06T04:36:19.979Z,97357.34
2023-08-06T04:37:21.508Z,97360.50
2023-08-06T04:38:24.814Z,97359.19
2023-08-06T04:39:26.366Z,97357.69
2023-08-06T04:40:28.049Z,97359.59
2023-08-06T04:41:29.878Z,97356.69
2023-08-06T04:42:31.414Z,97357.19
2023-08-06T04:43:32.990Z,97354.75
2023-08-06T04:44:34.539Z,97350.00
2023-08-06T04:45:36.121Z,97348.69
2023-08-06T04:46:38.047Z,97356.09
2023-08-06T04:47:39.623Z,97349.88
2023-08-06T04:48:41.203Z,97364.75
2023-08-06T04:49:42.714Z,97361.44
2023-08-06T04:50:50.878Z,97343.56
2023-08-06T04:51:52.972Z,97361.38
2023-08-06T04:52:55.506Z,97363.59
2023-08-06T04:53:58.190Z,97364.69
2023-08-06T04:54:59.728Z,97358.66
2023-08-06T04:56:01.261Z,97360.63
2023-08-06T04:57:03.293Z,97363.59
2023-08-06T04:58:04.927Z,97363.59
2023-08-06T04:59:07.041Z,97355.91
2023-08-06T05:00:08.977Z,97363.50
2023-08-06T05:01:10.896Z,97360.34
2023-08-06T05:02:12.510Z,97356.81
2023-08-06T05:03:14.083Z,97359.75
2023-08-06T05:04:15.643Z,97358.13
2023-08-06T05:05:17.330Z,97365.41
2023-08-06T05:06:19.224Z,97352.66
2023-08-06T05:07:20.748Z,97348.31
2023-08-06T05:08:22.284Z,97342.84
2023-08-06T05:09:23.806Z,97359.88
2023-08-06T05:10:26.271Z,97352.19
2023-08-06T05:11:28.157Z,97360.59
2023-08-06T05:12:29.711Z,97361.19
2023-08-06T05:13:31.310Z,97359.06
2023-08-06T05:14:32.917Z,97356.03
2023-08-06T05:15:34.431Z,97347.22
2023-08-06T05:16:36.350Z,97351.75
2023-08-06T05:17:37.941Z,97342.97
2023-08-06T05:18:39.788Z,97346.81
2023-08-06T05:19:41.340Z,97353.81
2023-08-06T05:20:43.727Z,97356.34
2023-08-06T05:21:45.263Z,97355.66
2023-08-06T05:22:46.791Z,97355.75
2023-08-06T05:23:48.420Z,97342.28
2023-08-06T05:24:50.007Z,97353.31
2023-08-06T05:25:51.908Z,97360.09
2023-08-06T05:26:53.447Z,97349.16
2023-08-06T05:27:55.016Z,97347.56
2023-08-06T05:28:56.540Z,97359.22
2023-08-06T05:29:58.077Z,97352.19
2023-08-06T05:31:00.093Z,97361.13
2023-08-06T05:32:01.664Z,97348.81
2023-08-06T05:33:03.412Z,97353.06
2023-08-06T05:34:04.996Z,97361.06
2023-08-06T05:35:07.461Z,97346.06
2023-08-06T05:36:09.355Z,97354.88
2023-08-06T05:37:10.956Z,97354.03
2023-08-06T05:38:12.486Z,97350.41
2023-08-06T05:39:14.056Z,97343.06
2023-08-06T05:40:15.611Z,97342.53
2023-08-06T05:41:17.517Z,97349.25
2023-08-06T05:42:19.049Z,97347.56
2023-08-06T05:43:20.628Z,97343.81
2023-08-06T05:44:22.779Z,97342.03
2023-08-06T05:45:24.303Z,97343.19
2023-08-06T05:46:26.155Z,97338.00
2023-08-06T05:47:27.796Z,97344.09
2023-08-06T05:48:29.452Z,97348.59
2023-08-06T05:49:31.007Z,97347.41
2023-08-06T05:50:32.570Z,97352.84
2023-08-06T05:51:34.459Z,97345.06
2023-08-06T05:52:35.990Z,97351.38
2023-08-06T05:53:37.534Z,97330.66
2023-08-06T05:54:39.108Z,97331.94
2023-08-06T05:55:40.656Z,97344.59
2023-08-06T05:56:42.520Z,97343.94
2023-08-06T05:57:44.050Z,97344.88
2023-08-06T05:58:47.450Z,97332.22
2023-08-06T05:59:48.987Z,97341.03
2023-08-06T06:00:50.530Z,97333.66
2023-08-06T06:01:52.503Z,97338.53
2023-08-06T06:02:54.333Z,97324.47
2023-08-06T06:03:56.042Z,97333.28
2023-08-06T06:04:57.584Z,97332.06
2023-08-06T06:05:59.521Z,97338.63
2023-08-06T06:07:01.402Z,97334.78
2023-08-06T06:08:02.943Z,97334.97
2023-08-06T06:09:04.557Z,97342.28
2023-08-06T06:10:06.700Z,97346.22
2023-08-06T06:11:08.250Z,97339.56
2023-08-06T06:12:11.840Z,97346.06
2023-08-06T06:13:13.355Z,97331.84
2023-08-06T06:14:14.877Z,97340.97
2023-08-06T06:15:16.458Z,97336.06
2023-08-06T06:16:18.016Z,97346.75
2023-08-06T06:17:19.981Z,97330.75
2023-08-06T06:18:21.585Z,97343.00
2023-08-06T06:19:23.124Z,97334.78
2023-08-06T06:20:24.655Z,97340.38
2023-08-06T06:21:26.180Z,97337.91
2023-08-06T06:22:28.072Z,97337.72
2023-08-06T06:23:29.613Z,97346.41
2023-08-06T06:24:31.429Z,97337.59
2023-08-06T06:25:32.992Z,97335.59
2023-08-06T06:26:34.524Z,97336.63
2023-08-06T06:27:36.446Z,97341.34
2023-08-06T06:28:37.977Z,97335.22
2023-08-06T06:29:40.123Z,97327.41
2023-08-06T06:30:43.510Z,97331.47
2023-08-06T06:31:45.157Z,97334.09
2023-08-06T06:32:47.130Z,97335.91
2023-08-06T06:33:48.674Z,97338.84
2023-08-06T06:34:50.215Z,97332.28
2023-08-06T06:35:51.758Z,97334.41
2023-08-06T06:36:54.241Z,97326.59
2023-08-06T06:37:56.207Z,97327.72
2023-08-06T06:38:57.827Z,97342.91
2023-08-06T06:39:59.440Z,97342.38
2023-08-06T06:41:01.001Z,97332.75
2023-08-06T06:42:02.557Z,97338.75
2023-08-06T06:43:04.420Z,97338.81
2023-08-06T06:44:06.973Z,97334.69
2023-08-06T06:45:09.307Z,97327.41
2023-08-06T06:46:10.975Z,97333.19
2023-08-06T06:47:12.589Z,97330.88
2023-08-06T06:48:14.496Z,97329.84
2023-08-06T06:49:16.275Z,97333.47
2023-08-06T06:50:17.972Z,97335.41
2023-08-06T06:51:19.547Z,97327.31
2023-08-06T06:52:21.121Z,97341.78
2023-08-06T06:53:28.676Z,97336.81
2023-08-06T06:54:30.407Z,97336.72
2023-08-06T06:55:31.970Z,97340.97
2023-08-06T06:56:33.637Z,97337.75
2023-08-06T06:57:35.242Z,97332.28
2023-08-06T06:58:37.244Z,97331.38
2023-08-06T06:59:39.458Z,97333.59
2023-08-06T07:00:41.040Z,97339.94
2023-08-06T07:01:42.620Z,97345.53
2023-08-06T07:02:44.234Z,97338.75
2023-08-06T07:03:46.248Z,97341.97
2023-08-06T07:04:47.907Z,97339.25
2023-08-06T07:05:50.386Z,97339.25
2023-08-06T07:06:54.099Z,97334.28
2023-08-06T07:07:55.627Z,97332.06
2023-08-06T07:09:00.141Z,97328.31
2023-08-06T07:10:02.214Z,97330.34
2023-08-06T07:11:04.479Z,97329.84
2023-08-06T07:12:06.409Z,97326.59
2023-08-06T07:13:08.018Z,97337.13
2023-08-06T07:14:09.835Z,97330.88
2023-08-06T07:15:11.661Z,97335.00
2023-08-06T07:16:13.483Z,97327.63
2023-08-06T07:17:15.275Z,97325.78
2023-08-06T07:18:16.822Z,97324.97
2023-08-06T07:19:18.691Z,97324.75
2023-08-06T07:20:20.244Z,97326.78
2023-08-06T07:21:21.939Z,97331.97
2023-08-06T07:22:23.470Z,97328.59
2023-08-06T07:23:26.406Z,97325.88
2023-08-06T07:24:28.248Z,97282.78
2023-08-06T07:25:29.858Z,97304.13
2023-08-06T07:26:31.439Z,97329.22
2023-08-06T07:27:33.613Z,97320.28
2023-08-06T07:28:35.162Z,97330.03
2023-08-06T07:29:37.050Z,97330.84
2023-08-06T07:30:41.804Z,97330.38
2023-08-06T07:31:43.373Z,97331.56
2023-08-06T07:32:44.975Z,97324.97
2023-08-06T07:33:46.632Z,97332.47
2023-08-06T07:34:48.488Z,97330.84
2023-08-06T07:35:50.172Z,97313.50
2023-08-06T07:36:51.830Z,97321.53
2023-08-06T07:37:54.512Z,97322.84
2023-08-06T07:38:58.927Z,97314.81
2023-08-06T07:40:00.964Z,97320.53
2023-08-06T07:41:03.286Z,97320.09
2023-08-06T07:42:06.804Z,97322.00
2023-08-06T07:43:08.381Z,97323.69
2023-08-06T07:44:13.190Z,97322.47
2023-08-06T07:45:15.169Z,97317.31
2023-08-06T07:46:17.746Z,97309.66
2023-08-06T07:47:20.038Z,97313.75
2023-08-06T07:48:21.653Z,97310.91
2023-08-06T07:49:23.572Z,97307.66
2023-08-06T07:50:25.145Z,97313.00
2023-08-06T07:51:26.670Z,97306.56
2023-08-06T07:52:28.209Z,97287.00
2023-08-06T07:53:30.695Z,97298.53
2023-08-06T07:54:32.636Z,97310.47
2023-08-06T07:55:34.163Z,97307.88
2023-08-06T07:56:37.784Z,97301.38
2023-08-06T07:57:39.351Z,97300.78
2023-08-06T07:58:40.880Z,97301.94
2023-08-06T07:59:42.819Z,97296.03
2023-08-06T08:00:46.524Z,97291.78
2023-08-06T08:01:48.131Z,97294.16
2023-08-06T08:02:49.861Z,97291.38
2023-08-06T08:03:51.607Z,97296.53
2023-08-06T08:04:53.582Z,97294.16
2023-08-06T08:05:57.411Z,97300.47
2023-08-06T08:06:59.114Z,97300.94
2023-08-06T08:08:00.642Z,97298.97
2023-08-06T08:09:02.512Z,97305.84
2023-08-06T08:10:06.257Z,97296.84
2023-08-06T08:11:08.681Z,97300.34
2023-08-06T08:12:10.262Z,97299.75
2023-08-06T08:13:12.139Z,97292.72
2023-08-06T08:14:13.659Z,97293.13
2023-08-06T08:15:15.196Z,97301.81
2023-08-06T08:16:16.794Z,97297.66
2023-08-06T08:17:18.430Z,97292.75
2023-08-06T08:18:20.664Z,97298.69
2023-08-06T08:19:22.865Z,97291.63
2023-08-06T08:20:24.467Z,97294.34
2023-08-06T08:21:26.032Z,97288.09
2023-08-06T08:22:27.562Z,97294.81
2023-08-06T08:23:29.952Z,97294.72
2023-08-06T08:24:31.770Z,97296.53
2023-08-06T08:25:33.366Z,97288.69
2023-08-06T08:26:34.998Z,97309.28
2023-08-06T08:27:36.540Z,97303.88
2023-08-06T08:28:38.434Z,97293.84
2023-08-06T08:29:39.949Z,97303.63
2023-08-06T08:30:44.527Z,97298.22
2023-08-06T08:31:46.088Z,97309.97
2023-08-06T08:32:48.105Z,97301.56
2023-08-06T08:33:51.364Z,97299.13
2023-08-06T08:34:54.591Z,97300.13
2023-08-06T08:35:56.117Z,97295.50
2023-08-06T08:36:58.185Z,97294.66
2023-08-06T08:37:59.768Z,97295.66
2023-08-06T08:39:01.643Z,97297.84
2023-08-06T08:40:04.691Z,97293.25
2023-08-06T08:41:06.721Z,97301.66
2023-08-06T08:42:08.313Z,97307.31
2023-08-06T08:43:09.842Z,97303.34
2023-08-06T08:44:14.322Z,97309.91
2023-08-06T08:45:16.001Z,97314.72
2023-08-06T08:46:17.633Z,97302.38
2023-08-06T08:47:19.250Z,97315.22
2023-08-06T08:48:20.805Z,97334.59
2023-08-06T08:49:23.094Z,97303.41
2023-08-06T08:50:24.673Z,97325.38
2023-08-06T08:51:27.712Z,97317.47
2023-08-06T08:52:34.025Z,97322.75
2023-08-06T08:53:35.982Z,97305.16
2023-08-06T08:54:39.386Z,97315.00
2023-08-06T08:55:41.076Z,97316.06
2023-08-06T08:56:42.697Z,97319.91
2023-08-06T08:57:44.744Z,97308.25
2023-08-06T08:58:46.310Z,97310.47
2023-08-06T08:59:48.158Z,97307.78
2023-08-06T09:00:49.695Z,97296.34
2023-08-06T09:01:52.714Z,97302.44
2023-08-06T09:02:54.714Z,97311.16
2023-08-06T09:03:56.706Z,97304.78
2023-08-06T09:05:00.899Z,97298.03
2023-08-06T09:06:02.431Z,97299.72
2023-08-06T09:07:03.991Z,97305.44
2023-08-06T09:08:05.791Z,97306.22
2023-08-06T09:09:09.646Z,97295.56
2023-08-06T09:10:12.045Z,97301.31
2023-08-06T09:11:13.617Z,97294.16
2023-08-06T09:12:15.999Z,97288.84
2023-08-06T09:13:18.024Z,97293.22
2023-08-06T09:14:20.049Z,97300.91
2023-08-06T09:15:23.349Z,97289.84
2023-08-06T09:16:26.239Z,97302.31
2023-08-06T09:17:29.566Z,97297.25
2023-08-06T09:18:31.274Z,97291.88
2023-08-06T09:19:33.137Z,97292.72
2023-08-06T09:20:36.527Z,97290.78
2023-08-06T09:21:39.340Z,97285.16
2023-08-06T09:22:41.028Z,97304.47
2023-08-06T09:23:42.579Z,97305.19
2023-08-06T09:24:44.578Z,97304.31
2023-08-06T09:25:46.086Z,97298.22
2023-08-06T09:26:47.655Z,97305.97
2023-08-06T09:27:49.192Z,97301.91
2023-08-06T09:28:50.780Z,97305.00
2023-08-06T09:29:52.685Z,97306.25
2023-08-06T09:30:56.256Z,97307.06
2023-08-06T09:31:58.506Z,97303.31
2023-08-06T09:33:00.464Z,97298.81
2023-08-06T09:34:02.686Z,97299.94
2023-08-06T09:35:06.672Z,97306.34
2023-08-06T09:36:09.960Z,97298.22
2023-08-06T09:37:20.024Z,97284.69
2023-08-06T09:38:24.597Z,97297.31
2023-08-06T09:39:30.480Z,97290.91
2023-08-06T09:40:32.787Z,97285.66
2023-08-06T09:41:34.357Z,97298.97
2023-08-06T09:42:37.830Z,97287.09
2023-08-06T09:43:43.539Z,97288.59
2023-08-06T09:44:45.563Z,97274.25
2023-08-06T09:45:47.327Z,97281.22
2023-08-06T09:46:50.235Z,97293.75
2023-08-06T09:47:51.731Z,97283.63
2023-08-06T09:48:53.365Z,97280.69
2023-08-06T09:49:55.274Z,97280.66
2023-08-06T09:50:56.970Z,97280.06
2023-08-06T09:51:59.346Z,97287.25
2023-08-06T09:53:01.482Z,97269.91
2023-08-06T09:54:13.303Z,97285.53
2023-08-06T09:55:23.287Z,97287.38
2023-08-06T09:56:27.603Z,97286.06
2023-08-06T09:57:29.164Z,97276.13
2023-08-06T09:58:32.168Z,97288.00
2023-08-06T09:59:33.765Z,97281.31
2023-08-06T10:00:39.968Z,97294.06
2023-08-06T10:01:41.976Z,97270.09
2023-08-06T10:02:43.574Z,97285.88
2023-08-06T10:03:45.420Z,97285.47
2023-08-06T10:04:55.093Z,97278.94
2023-08-06T10:05:58.144Z,97273.22
2023-08-06T10:06:59.667Z,97271.75
2023-08-06T10:08:01.361Z,97265.34
2023-08-06T10:09:03.799Z,97269.88
2023-08-06T10:10:06.037Z,97268.75
2023-08-06T10:11:07.581Z,97276.84
2023-08-06T10:12:09.119Z,97272.19
2023-08-06T10:13:10.682Z,97279.56
2023-08-06T10:14:14.173Z,97262.31
2023-08-06T10:15:18.037Z,97264.41
2023-08-06T10:16:19.653Z,97273.69
2023-08-06T10:17:22.035Z,97274.84
2023-08-06T10:18:23.912Z,97270.59
2023-08-06T10:19:25.873Z,97264.97
2023-08-06T10:20:27.918Z,97263.84
2023-08-06T10:21:31.584Z,97249.13
2023-08-06T10:22:33.851Z,97262.63
2023-08-06T10:23:36.537Z,97260.44
2023-08-06T10:24:57.573Z,97256.53
2023-08-06T10:26:01.175Z,97246.72
2023-08-06T10:27:02.724Z,97255.44
2023-08-06T10:28:10.911Z,97249.69
2023-08-06T10:29:41.958Z,97256.66
2023-08-06T10:30:47.712Z,97252.16
2023-08-06T10:31:56.514Z,97255.16
2023-08-06T10:33:02.497Z,97256.16
2023-08-06T10:34:04.071Z,97260.81
2023-08-06T10:35:06.176Z,97250.31
2023-08-06T10:36:10.863Z,97252.38
2023-08-06T10:37:12.411Z,97243.84
2023-08-06T10:38:23.998Z,97242.84
2023-08-06T10:39:31.124Z,97253.69
2023-08-06T10:40:34.071Z,97243.28
2023-08-06T10:41:35.712Z,97250.44
2023-08-06T10:42:38.090Z,97258.28
2023-08-06T10:43:40.113Z,97237.78
2023-08-06T10:45:17.600Z,97252.53
2023-08-06T10:46:28.671Z,97248.34
2023-08-06T10:47:30.323Z,97228.06
2023-08-06T10:48:41.752Z,97237.22
2023-08-06T10:49:43.629Z,97241.09
2023-08-06T10:50:45.195Z,97239.63
2023-08-06T10:51:46.782Z,97243.53
2023-08-06T10:52:48.448Z,97241.09
2023-08-06T10:53:51.147Z,97242.88
2023-08-06T10:54:53.006Z,97236.91
2023-08-06T10:55:54.581Z,97239.47
2023-08-06T10:56:56.184Z,97236.09
2023-08-06T10:57:57.727Z,97236.03
2023-08-06T10:59:00.057Z,97239.47
2023-08-06T11:01:06.166Z,97244.78
2023-08-06T11:02:07.751Z,97241.31
2023-08-06T11:03:09.533Z,97251.50
2023-08-06T11:04:16.931Z,97229.28
2023-08-06T11:05:18.945Z,97242.84
2023-08-06T11:06:21.346Z,97238.50
2023-08-06T11:07:24.633Z,97241.66
2023-08-06T11:08:29.964Z,97226.94
2023-08-06T11:09:31.507Z,97228.50
2023-08-06T11:10:36.288Z,97228.34
2023-08-06T11:11:38.595Z,97224.31
2023-08-06T11:12:40.284Z,97218.47
2023-08-06T11:13:43.021Z,97213.16
2023-08-06T11:14:46.593Z,97218.97
2023-08-06T11:15:48.449Z,97227.34
2023-08-06T11:16:51.269Z,97225.25
2023-08-06T11:17:52.733Z,97227.38
2023-08-06T11:18:55.347Z,97213.66
2023-08-06T11:19:57.022Z,97224.94
2023-08-06T11:21:03.147Z,97215.41
2023-08-06T11:22:04.768Z,97212.50
2023-08-06T11:23:06.884Z,97223.34
2023-08-06T11:24:08.435Z,97219.22
2023-08-06T11:25:10.076Z,97213.97
2023-08-06T11:26:11.952Z,97213.16
2023-08-06T11:27:17.542Z,97216.88
2023-08-06T11:28:22.527Z,97208.03
2023-08-06T11:29:24.313Z,97205.25
2023-08-06T11:30:26.047Z,97216.22
2023-08-06T11:31:27.900Z,97196.53
2023-08-06T11:32:29.568Z,97215.09
2023-08-06T11:33:31.252Z,97206.03
2023-08-06T11:34:32.795Z,97202.34
2023-08-06T11:35:37.413Z,97192.81
2023-08-06T11:36:41.623Z,97206.38
2023-08-06T11:37:47.048Z,97207.19
2023-08-06T11:38:48.592Z,97200.75
2023-08-06T11:39:50.224Z,97195.09
2023-08-06T11:40:52.049Z,97201.34
2023-08-06T11:41:53.765Z,97201.22
2023-08-06T11:42:55.586Z,97201.41
2023-08-06T11:43:57.425Z,97207.38
2023-08-06T11:44:59.042Z,97207.69
2023-08-06T11:46:01.767Z,97206.25
2023-08-06T11:47:05.766Z,97207.84
2023-08-06T11:48:12.985Z,97211.06
2023-08-06T11:49:26.230Z,97198.13
2023-08-06T11:50:28.016Z,97198.94
2023-08-06T11:51:29.939Z,97189.84
2023-08-06T11:52:32.040Z,97203.75
2023-08-06T11:53:40.869Z,97210.88
2023-08-06T11:54:42.953Z,97199.25
2023-08-06T11:55:44.947Z,97193.88
2023-08-06T11:56:47.216Z,97207.13
2023-08-06T11:57:49.724Z,97202.81
2023-08-06T11:58:53.613Z,97194.41
2023-08-06T11:59:55.143Z,97184.59
2023-08-06T12:00:57.451Z,97194.88
2023-08-06T12:01:59.192Z,97195.88
2023-08-06T12:03:04.098Z,97194.75
2023-08-06T12:04:06.701Z,97192.81
2023-08-06T12:05:10.748Z,97193.94
2023-08-06T12:06:12.638Z,97195.56
2023-08-06T12:07:14.166Z,97184.75
2023-08-06T12:08:15.857Z,97196.06
2023-08-06T12:09:18.298Z,97192.19
2023-08-06T12:10:20.787Z,97187.97
2023-08-06T12:11:22.766Z,97176.63
2023-08-06T12:12:24.787Z,97188.41
2023-08-06T12:13:26.322Z,97189.41
2023-08-06T12:14:27.885Z,97182.16
2023-08-06T12:15:31.100Z,97191.69